sensor_id;sensor_type;location;lat;lon;timestamp;P1;durP1;ratioP1;P2;durP2;ratioP2
42972;SDS011;28610;51.214;6.962;2023-04-30T00:01:32;22.07;;;12.70;;
42972;SDS011;28610;51.214;6.962;2023-04-30T00:04:18;19.53;;;12.73;;
42972;SDS011;28610;51.214;6.962;2023-04-30T00:07:04;20.03;;;12.60;;
42972;SDS011;28610;51.214;6.962;2023-04-30T00:09:51;23.10;;;13.10;;
42972;SDS011;28610;51.214;6.962;2023-04-30T00:12:36;21.67;;;12.83;;
42972;SDS011;28610;51.214;6.962;2023-04-30T00:15:22;20.87;;;13.07;;
42972;SDS011;28610;51.214;6.962;2023-04-30T00:18:08;20.63;;;12.83;;
42972;SDS011;28610;51.214;6.962;2023-04-30T00:20:54;21.63;;;13.47;;
42972;SDS011;28610;51.214;6.962;2023-04-30T00:23:39;23.00;;;12.57;;
42972;SDS011;28610;51.214;6.962;2023-04-30T00:26:26;21.87;;;12.20;;
42972;SDS011;28610;51.214;6.962;2023-04-30T00:29:12;23.93;;;13.07;;
42972;SDS011;28610;51.214;6.962;2023-04-30T00:31:57;24.67;;;12.97;;
42972;SDS011;28610;51.214;6.962;2023-04-30T00:34:43;20.57;;;12.67;;
42972;SDS011;28610;51.214;6.962;2023-04-30T00:37:29;20.70;;;12.47;;
42972;SDS011;28610;51.214;6.962;2023-04-30T00:40:15;21.63;;;12.60;;
42972;SDS011;28610;51.214;6.962;2023-04-30T00:43:02;22.63;;;13.57;;
42972;SDS011;28610;51.214;6.962;2023-04-30T00:45:48;23.83;;;13.67;;
42972;SDS011;28610;51.214;6.962;2023-04-30T00:48:34;21.80;;;13.10;;
42972;SDS011;28610;51.214;6.962;2023-04-30T00:51:19;22.30;;;13.00;;
42972;SDS011;28610;51.214;6.962;2023-04-30T00:54:05;25.47;;;13.73;;
42972;SDS011;28610;51.214;6.962;2023-04-30T00:56:51;20.83;;;13.00;;
42972;SDS011;28610;51.214;6.962;2023-04-30T00:59:38;25.00;;;14.40;;
42972;SDS011;28610;51.214;6.962;2023-04-30T01:02:25;23.03;;;14.37;;
42972;SDS011;28610;51.214;6.962;2023-04-30T01:05:11;23.40;;;14.00;;
42972;SDS011;28610;51.214;6.962;2023-04-30T01:07:57;26.03;;;14.23;;
42972;SDS011;28610;51.214;6.962;2023-04-30T01:10:45;26.77;;;14.47;;
42972;SDS011;28610;51.214;6.962;2023-04-30T01:13:33;25.10;;;14.10;;
42972;SDS011;28610;51.214;6.962;2023-04-30T01:16:25;25.80;;;13.97;;
42972;SDS011;28610;51.214;6.962;2023-04-30T01:19:16;23.97;;;14.13;;
42972;SDS011;28610;51.214;6.962;2023-04-30T01:22:04;24.83;;;13.53;;
42972;SDS011;28610;51.214;6.962;2023-04-30T01:25:00;23.43;;;13.73;;
42972;SDS011;28610;51.214;6.962;2023-04-30T01:28:04;26.77;;;13.60;;
42972;SDS011;28610;51.214;6.962;2023-04-30T01:30:51;26.40;;;13.87;;
42972;SDS011;28610;51.214;6.962;2023-04-30T01:33:36;24.83;;;13.47;;
42972;SDS011;28610;51.214;6.962;2023-04-30T01:36:29;23.83;;;13.20;;
42972;SDS011;28610;51.214;6.962;2023-04-30T01:39:30;25.57;;;13.73;;
42972;SDS011;28610;51.214;6.962;2023-04-30T01:42:19;21.23;;;13.40;;
42972;SDS011;28610;51.214;6.962;2023-04-30T01:45:17;25.17;;;14.43;;
42972;SDS011;28610;51.214;6.962;2023-04-30T01:48:06;25.80;;;14.37;;
42972;SDS011;28610;51.214;6.962;2023-04-30T01:50:57;27.23;;;14.90;;
42972;SDS011;28610;51.214;6.962;2023-04-30T01:53:44;23.77;;;14.33;;
42972;SDS011;28610;51.214;6.962;2023-04-30T01:56:31;25.53;;;14.37;;
42972;SDS011;28610;51.214;6.962;2023-04-30T01:59:18;24.73;;;14.20;;
42972;SDS011;28610;51.214;6.962;2023-04-30T02:02:06;26.73;;;14.33;;
42972;SDS011;28610;51.214;6.962;2023-04-30T02:04:51;23.07;;;14.07;;
42972;SDS011;28610;51.214;6.962;2023-04-30T02:07:38;24.80;;;14.43;;
42972;SDS011;28610;51.214;6.962;2023-04-30T02:10:25;24.30;;;14.20;;
42972;SDS011;28610;51.214;6.962;2023-04-30T02:13:12;25.07;;;14.73;;
42972;SDS011;28610;51.214;6.962;2023-04-30T02:15:58;25.83;;;14.77;;
42972;SDS011;28610;51.214;6.962;2023-04-30T02:18:45;25.90;;;13.77;;
42972;SDS011;28610;51.214;6.962;2023-04-30T02:21:31;26.60;;;14.63;;
42972;SDS011;28610;51.214;6.962;2023-04-30T02:24:16;23.13;;;13.77;;
42972;SDS011;28610;51.214;6.962;2023-04-30T02:27:02;26.73;;;15.13;;
42972;SDS011;28610;51.214;6.962;2023-04-30T02:29:48;24.73;;;14.37;;
42972;SDS011;28610;51.214;6.962;2023-04-30T02:32:34;26.30;;;14.97;;
42972;SDS011;28610;51.214;6.962;2023-04-30T02:35:20;28.87;;;14.77;;
42972;SDS011;28610;51.214;6.962;2023-04-30T02:38:06;30.27;;;15.90;;
42972;SDS011;28610;51.214;6.962;2023-04-30T02:40:52;26.10;;;14.90;;
42972;SDS011;28610;51.214;6.962;2023-04-30T02:43:37;28.13;;;15.63;;
42972;SDS011;28610;51.214;6.962;2023-04-30T02:46:23;27.67;;;15.90;;
42972;SDS011;28610;51.214;6.962;2023-04-30T02:49:08;27.17;;;15.37;;
42972;SDS011;28610;51.214;6.962;2023-04-30T02:51:55;26.33;;;15.70;;
42972;SDS011;28610;51.214;6.962;2023-04-30T02:54:41;32.83;;;16.43;;
42972;SDS011;28610;51.214;6.962;2023-04-30T02:57:27;27.47;;;15.93;;
42972;SDS011;28610;51.214;6.962;2023-04-30T03:00:13;27.50;;;15.60;;
42972;SDS011;28610;51.214;6.962;2023-04-30T03:02:59;27.83;;;16.87;;
42972;SDS011;28610;51.214;6.962;2023-04-30T03:05:45;29.03;;;16.20;;
42972;SDS011;28610;51.214;6.962;2023-04-30T03:08:32;26.77;;;16.30;;
42972;SDS011;28610;51.214;6.962;2023-04-30T03:11:17;28.97;;;16.70;;
42972;SDS011;28610;51.214;6.962;2023-04-30T03:14:03;27.33;;;15.47;;
42972;SDS011;28610;51.214;6.962;2023-04-30T03:16:49;27.57;;;16.17;;
42972;SDS011;28610;51.214;6.962;2023-04-30T03:19:35;29.17;;;16.30;;
42972;SDS011;28610;51.214;6.962;2023-04-30T03:22:21;28.03;;;17.00;;
42972;SDS011;28610;51.214;6.962;2023-04-30T03:25:10;30.70;;;16.87;;
42972;SDS011;28610;51.214;6.962;2023-04-30T03:27:55;29.37;;;17.77;;
42972;SDS011;28610;51.214;6.962;2023-04-30T03:30:41;30.30;;;17.27;;
42972;SDS011;28610;51.214;6.962;2023-04-30T03:33:27;34.33;;;17.50;;
42972;SDS011;28610;51.214;6.962;2023-04-30T03:36:12;30.57;;;17.97;;
42972;SDS011;28610;51.214;6.962;2023-04-30T03:38:58;32.60;;;18.03;;
42972;SDS011;28610;51.214;6.962;2023-04-30T03:41:44;35.27;;;17.90;;
42972;SDS011;28610;51.214;6.962;2023-04-30T03:44:30;30.90;;;17.13;;
42972;SDS011;28610;51.214;6.962;2023-04-30T03:47:15;35.00;;;19.37;;
42972;SDS011;28610;51.214;6.962;2023-04-30T03:50:02;31.77;;;17.50;;
42972;SDS011;28610;51.214;6.962;2023-04-30T03:52:47;30.03;;;17.80;;
42972;SDS011;28610;51.214;6.962;2023-04-30T03:55:33;33.13;;;18.17;;
42972;SDS011;28610;51.214;6.962;2023-04-30T03:58:20;34.47;;;19.13;;
42972;SDS011;28610;51.214;6.962;2023-04-30T04:01:06;34.13;;;18.47;;
42972;SDS011;28610;51.214;6.962;2023-04-30T04:03:52;32.87;;;19.03;;
42972;SDS011;28610;51.214;6.962;2023-04-30T04:06:38;34.23;;;18.97;;
42972;SDS011;28610;51.214;6.962;2023-04-30T04:09:23;34.23;;;18.77;;
42972;SDS011;28610;51.214;6.962;2023-04-30T04:12:09;37.43;;;19.57;;
42972;SDS011;28610;51.214;6.962;2023-04-30T04:14:56;36.33;;;20.60;;
42972;SDS011;28610;51.214;6.962;2023-04-30T04:17:42;34.37;;;19.57;;
42972;SDS011;28610;51.214;6.962;2023-04-30T04:20:27;34.30;;;19.60;;
42972;SDS011;28610;51.214;6.962;2023-04-30T04:23:13;36.70;;;19.60;;
42972;SDS011;28610;51.214;6.962;2023-04-30T04:25:58;33.80;;;19.07;;
42972;SDS011;28610;51.214;6.962;2023-04-30T04:28:44;34.30;;;18.70;;
42972;SDS011;28610;51.214;6.962;2023-04-30T04:31:31;34.30;;;18.17;;
42972;SDS011;28610;51.214;6.962;2023-04-30T04:34:17;36.70;;;18.17;;
42972;SDS011;28610;51.214;6.962;2023-04-30T04:37:03;37.70;;;19.00;;
42972;SDS011;28610;51.214;6.962;2023-04-30T04:39:49;29.03;;;17.17;;
42972;SDS011;28610;51.214;6.962;2023-04-30T04:42:35;31.27;;;17.63;;
42972;SDS011;28610;51.214;6.962;2023-04-30T04:45:21;30.67;;;18.13;;
42972;SDS011;28610;51.214;6.962;2023-04-30T04:48:08;29.50;;;17.47;;
42972;SDS011;28610;51.214;6.962;2023-04-30T04:50:54;31.73;;;18.87;;
42972;SDS011;28610;51.214;6.962;2023-04-30T04:53:40;31.73;;;18.07;;
42972;SDS011;28610;51.214;6.962;2023-04-30T04:56:25;32.13;;;17.97;;
42972;SDS011;28610;51.214;6.962;2023-04-30T04:59:11;27.80;;;17.27;;
42972;SDS011;28610;51.214;6.962;2023-04-30T05:01:56;26.73;;;15.37;;
42972;SDS011;28610;51.214;6.962;2023-04-30T05:04:43;23.70;;;15.07;;
42972;SDS011;28610;51.214;6.962;2023-04-30T05:07:29;25.17;;;14.70;;
42972;SDS011;28610;51.214;6.962;2023-04-30T05:10:15;21.17;;;13.37;;
42972;SDS011;28610;51.214;6.962;2023-04-30T05:13:00;24.47;;;13.83;;
42972;SDS011;28610;51.214;6.962;2023-04-30T05:15:46;25.80;;;14.33;;
42972;SDS011;28610;51.214;6.962;2023-04-30T05:18:32;22.50;;;14.47;;
42972;SDS011;28610;51.214;6.962;2023-04-30T05:21:19;20.97;;;13.40;;
42972;SDS011;28610;51.214;6.962;2023-04-30T05:24:06;23.27;;;13.83;;
42972;SDS011;28610;51.214;6.962;2023-04-30T05:26:51;23.90;;;13.20;;
42972;SDS011;28610;51.214;6.962;2023-04-30T05:29:37;23.77;;;13.40;;
42972;SDS011;28610;51.214;6.962;2023-04-30T05:32:23;22.57;;;13.20;;
42972;SDS011;28610;51.214;6.962;2023-04-30T05:35:10;19.73;;;12.90;;
42972;SDS011;28610;51.214;6.962;2023-04-30T05:37:57;21.33;;;13.10;;
42972;SDS011;28610;51.214;6.962;2023-04-30T05:40:44;22.47;;;14.10;;
42972;SDS011;28610;51.214;6.962;2023-04-30T05:43:30;22.00;;;13.23;;
42972;SDS011;28610;51.214;6.962;2023-04-30T05:46:16;21.67;;;13.20;;
42972;SDS011;28610;51.214;6.962;2023-04-30T05:49:02;17.57;;;12.30;;
42972;SDS011;28610;51.214;6.962;2023-04-30T05:51:48;18.57;;;12.27;;
42972;SDS011;28610;51.214;6.962;2023-04-30T05:54:35;19.93;;;13.20;;
42972;SDS011;28610;51.214;6.962;2023-04-30T05:57:20;25.87;;;13.57;;
42972;SDS011;28610;51.214;6.962;2023-04-30T06:00:07;18.17;;;12.70;;
42972;SDS011;28610;51.214;6.962;2023-04-30T06:02:53;22.50;;;13.17;;
42972;SDS011;28610;51.214;6.962;2023-04-30T06:05:39;20.70;;;13.20;;
42972;SDS011;28610;51.214;6.962;2023-04-30T06:08:24;21.60;;;13.03;;
42972;SDS011;28610;51.214;6.962;2023-04-30T06:11:11;21.20;;;13.23;;
42972;SDS011;28610;51.214;6.962;2023-04-30T06:13:58;23.23;;;13.60;;
42972;SDS011;28610;51.214;6.962;2023-04-30T06:16:43;22.70;;;13.73;;
42972;SDS011;28610;51.214;6.962;2023-04-30T06:19:29;22.93;;;13.70;;
42972;SDS011;28610;51.214;6.962;2023-04-30T06:22:14;19.87;;;12.27;;
42972;SDS011;28610;51.214;6.962;2023-04-30T06:25:00;21.40;;;13.30;;
42972;SDS011;28610;51.214;6.962;2023-04-30T06:27:47;23.70;;;13.63;;
42972;SDS011;28610;51.214;6.962;2023-04-30T06:30:36;21.73;;;13.13;;
42972;SDS011;28610;51.214;6.962;2023-04-30T06:33:22;25.93;;;13.50;;
42972;SDS011;28610;51.214;6.962;2023-04-30T06:36:07;21.63;;;12.73;;
42972;SDS011;28610;51.214;6.962;2023-04-30T06:38:53;22.83;;;12.53;;
42972;SDS011;28610;51.214;6.962;2023-04-30T06:41:39;23.00;;;12.50;;
42972;SDS011;28610;51.214;6.962;2023-04-30T06:44:26;21.80;;;11.90;;
42972;SDS011;28610;51.214;6.962;2023-04-30T06:47:12;21.40;;;12.60;;
42972;SDS011;28610;51.214;6.962;2023-04-30T06:49:58;20.37;;;11.63;;
42972;SDS011;28610;51.214;6.962;2023-04-30T06:52:43;20.57;;;11.27;;
42972;SDS011;28610;51.214;6.962;2023-04-30T06:55:29;18.07;;;10.60;;
42972;SDS011;28610;51.214;6.962;2023-04-30T06:58:15;17.23;;;10.13;;
42972;SDS011;28610;51.214;6.962;2023-04-30T07:01:02;16.00;;;10.13;;
42972;SDS011;28610;51.214;6.962;2023-04-30T07:03:48;15.57;;;10.80;;
42972;SDS011;28610;51.214;6.962;2023-04-30T07:06:35;17.83;;;10.10;;
42972;SDS011;28610;51.214;6.962;2023-04-30T07:09:20;15.82;;;9.55;;
42972;SDS011;28610;51.214;6.962;2023-04-30T07:12:06;17.42;;;9.70;;
42972;SDS011;28610;51.214;6.962;2023-04-30T07:14:56;17.40;;;9.48;;
42972;SDS011;28610;51.214;6.962;2023-04-30T07:17:43;13.77;;;8.75;;
42972;SDS011;28610;51.214;6.962;2023-04-30T07:20:29;13.38;;;9.23;;
42972;SDS011;28610;51.214;6.962;2023-04-30T07:23:14;14.30;;;9.00;;
42972;SDS011;28610;51.214;6.962;2023-04-30T07:26:00;14.80;;;8.65;;
42972;SDS011;28610;51.214;6.962;2023-04-30T07:28:45;14.48;;;8.63;;
42972;SDS011;28610;51.214;6.962;2023-04-30T07:31:32;17.50;;;8.60;;
42972;SDS011;28610;51.214;6.962;2023-04-30T07:34:19;14.30;;;8.13;;
42972;SDS011;28610;51.214;6.962;2023-04-30T07:37:05;11.27;;;8.05;;
42972;SDS011;28610;51.214;6.962;2023-04-30T07:39:51;11.57;;;7.50;;
42972;SDS011;28610;51.214;6.962;2023-04-30T07:42:37;12.23;;;7.32;;
42972;SDS011;28610;51.214;6.962;2023-04-30T07:45:23;14.95;;;7.90;;
42972;SDS011;28610;51.214;6.962;2023-04-30T07:48:09;11.13;;;7.25;;
42972;SDS011;28610;51.214;6.962;2023-04-30T07:50:56;12.95;;;7.80;;
42972;SDS011;28610;51.214;6.962;2023-04-30T07:53:41;12.40;;;7.80;;
42972;SDS011;28610;51.214;6.962;2023-04-30T07:56:27;12.15;;;7.97;;
42972;SDS011;28610;51.214;6.962;2023-04-30T07:59:13;13.45;;;7.28;;
42972;SDS011;28610;51.214;6.962;2023-04-30T08:01:59;11.02;;;6.38;;
42972;SDS011;28610;51.214;6.962;2023-04-30T08:04:45;12.45;;;6.70;;
42972;SDS011;28610;51.214;6.962;2023-04-30T08:07:32;10.32;;;6.60;;
42972;SDS011;28610;51.214;6.962;2023-04-30T08:10:18;9.68;;;6.18;;
42972;SDS011;28610;51.214;6.962;2023-04-30T08:13:04;11.30;;;5.88;;
42972;SDS011;28610;51.214;6.962;2023-04-30T08:15:49;10.70;;;6.25;;
42972;SDS011;28610;51.214;6.962;2023-04-30T08:18:35;17.77;;;6.22;;
42972;SDS011;28610;51.214;6.962;2023-04-30T08:21:21;12.30;;;6.80;;
42972;SDS011;28610;51.214;6.962;2023-04-30T08:24:08;8.82;;;4.80;;
42972;SDS011;28610;51.214;6.962;2023-04-30T08:26:53;9.50;;;6.03;;
42972;SDS011;28610;51.214;6.962;2023-04-30T08:29:39;10.10;;;5.63;;
42972;SDS011;28610;51.214;6.962;2023-04-30T08:32:24;11.20;;;5.00;;
42972;SDS011;28610;51.214;6.962;2023-04-30T08:35:10;8.43;;;4.55;;
42972;SDS011;28610;51.214;6.962;2023-04-30T08:37:56;7.75;;;4.57;;
42972;SDS011;28610;51.214;6.962;2023-04-30T08:40:43;7.15;;;4.55;;
42972;SDS011;28610;51.214;6.962;2023-04-30T08:43:30;5.55;;;3.60;;
42972;SDS011;28610;51.214;6.962;2023-04-30T08:46:16;5.82;;;3.58;;
42972;SDS011;28610;51.214;6.962;2023-04-30T08:49:02;6.57;;;3.40;;
42972;SDS011;28610;51.214;6.962;2023-04-30T08:51:48;4.78;;;3.15;;
42972;SDS011;28610;51.214;6.962;2023-04-30T08:54:34;4.93;;;3.15;;
42972;SDS011;28610;51.214;6.962;2023-04-30T08:57:21;5.88;;;3.45;;
42972;SDS011;28610;51.214;6.962;2023-04-30T09:00:07;5.03;;;3.17;;
42972;SDS011;28610;51.214;6.962;2023-04-30T09:02:53;4.63;;;3.05;;
42972;SDS011;28610;51.214;6.962;2023-04-30T09:05:39;6.63;;;3.40;;
42972;SDS011;28610;51.214;6.962;2023-04-30T09:08:40;7.32;;;3.38;;
42972;SDS011;28610;51.214;6.962;2023-04-30T09:11:26;6.95;;;3.67;;
42972;SDS011;28610;51.214;6.962;2023-04-30T09:14:21;8.60;;;4.38;;
42972;SDS011;28610;51.214;6.962;2023-04-30T09:17:08;8.73;;;4.78;;
42972;SDS011;28610;51.214;6.962;2023-04-30T09:19:54;9.23;;;5.32;;
42972;SDS011;28610;51.214;6.962;2023-04-30T09:22:41;8.32;;;4.95;;
42972;SDS011;28610;51.214;6.962;2023-04-30T09:25:28;8.18;;;4.40;;
42972;SDS011;28610;51.214;6.962;2023-04-30T09:28:22;8.20;;;4.80;;
42972;SDS011;28610;51.214;6.962;2023-04-30T09:31:19;7.13;;;4.47;;
42972;SDS011;28610;51.214;6.962;2023-04-30T09:34:05;7.30;;;4.65;;
42972;SDS011;28610;51.214;6.962;2023-04-30T09:36:51;5.90;;;4.00;;
42972;SDS011;28610;51.214;6.962;2023-04-30T09:39:47;7.13;;;4.18;;
42972;SDS011;28610;51.214;6.962;2023-04-30T09:42:33;7.30;;;4.50;;
42972;SDS011;28610;51.214;6.962;2023-04-30T09:45:19;7.90;;;3.70;;
42972;SDS011;28610;51.214;6.962;2023-04-30T09:48:06;5.78;;;3.75;;
42972;SDS011;28610;51.214;6.962;2023-04-30T09:50:53;5.60;;;3.55;;
42972;SDS011;28610;51.214;6.962;2023-04-30T09:53:39;5.45;;;3.38;;
42972;SDS011;28610;51.214;6.962;2023-04-30T09:56:25;5.68;;;3.63;;
42972;SDS011;28610;51.214;6.962;2023-04-30T09:59:11;5.13;;;3.75;;
42972;SDS011;28610;51.214;6.962;2023-04-30T10:01:58;5.25;;;3.10;;
42972;SDS011;28610;51.214;6.962;2023-04-30T10:04:48;5.97;;;3.40;;
42972;SDS011;28610;51.214;6.962;2023-04-30T10:07:35;4.07;;;2.88;;
42972;SDS011;28610;51.214;6.962;2023-04-30T10:10:24;4.72;;;3.10;;
42972;SDS011;28610;51.214;6.962;2023-04-30T10:13:12;3.40;;;2.67;;
42972;SDS011;28610;51.214;6.962;2023-04-30T10:16:00;3.47;;;2.50;;
42972;SDS011;28610;51.214;6.962;2023-04-30T10:18:49;3.92;;;2.60;;
42972;SDS011;28610;51.214;6.962;2023-04-30T10:21:38;3.92;;;2.50;;
42972;SDS011;28610;51.214;6.962;2023-04-30T10:24:24;2.50;;;2.10;;
42972;SDS011;28610;51.214;6.962;2023-04-30T10:27:11;3.60;;;1.88;;
42972;SDS011;28610;51.214;6.962;2023-04-30T10:29:57;2.30;;;1.90;;
42972;SDS011;28610;51.214;6.962;2023-04-30T10:32:45;1.95;;;1.70;;
42972;SDS011;28610;51.214;6.962;2023-04-30T10:35:34;2.97;;;2.00;;
42972;SDS011;28610;51.214;6.962;2023-04-30T10:38:25;2.42;;;2.10;;
42972;SDS011;28610;51.214;6.962;2023-04-30T10:41:11;4.00;;;2.40;;
42972;SDS011;28610;51.214;6.962;2023-04-30T10:43:59;2.75;;;2.20;;
42972;SDS011;28610;51.214;6.962;2023-04-30T10:46:47;3.65;;;2.40;;
42972;SDS011;28610;51.214;6.962;2023-04-30T10:49:33;2.30;;;2.10;;
42972;SDS011;28610;51.214;6.962;2023-04-30T10:52:25;2.70;;;2.10;;
42972;SDS011;28610;51.214;6.962;2023-04-30T10:55:15;3.63;;;2.20;;
42972;SDS011;28610;51.214;6.962;2023-04-30T10:58:02;2.85;;;2.20;;
42972;SDS011;28610;51.214;6.962;2023-04-30T11:01:08;3.03;;;2.10;;
42972;SDS011;28610;51.214;6.962;2023-04-30T11:04:03;4.22;;;2.50;;
42972;SDS011;28610;51.214;6.962;2023-04-30T11:06:54;2.88;;;2.13;;
42972;SDS011;28610;51.214;6.962;2023-04-30T11:09:41;3.35;;;2.20;;
42972;SDS011;28610;51.214;6.962;2023-04-30T11:12:28;2.90;;;2.15;;
42972;SDS011;28610;51.214;6.962;2023-04-30T11:15:14;5.13;;;2.20;;
42972;SDS011;28610;51.214;6.962;2023-04-30T11:18:00;3.42;;;2.05;;
42972;SDS011;28610;51.214;6.962;2023-04-30T11:20:48;3.20;;;2.35;;
42972;SDS011;28610;51.214;6.962;2023-04-30T11:23:34;3.17;;;2.20;;
42972;SDS011;28610;51.214;6.962;2023-04-30T11:26:19;3.70;;;1.90;;
42972;SDS011;28610;51.214;6.962;2023-04-30T11:29:07;2.20;;;2.00;;
42972;SDS011;28610;51.214;6.962;2023-04-30T11:31:54;3.10;;;1.90;;
42972;SDS011;28610;51.214;6.962;2023-04-30T11:34:41;1.95;;;1.77;;
42972;SDS011;28610;51.214;6.962;2023-04-30T11:37:28;3.20;;;1.80;;
42972;SDS011;28610;51.214;6.962;2023-04-30T11:40:15;2.22;;;1.75;;
42972;SDS011;28610;51.214;6.962;2023-04-30T11:43:00;2.45;;;1.92;;
42972;SDS011;28610;51.214;6.962;2023-04-30T11:45:58;1.80;;;1.70;;
42972;SDS011;28610;51.214;6.962;2023-04-30T11:48:44;2.35;;;1.77;;
42972;SDS011;28610;51.214;6.962;2023-04-30T11:51:30;2.20;;;1.80;;
42972;SDS011;28610;51.214;6.962;2023-04-30T11:54:16;3.58;;;1.80;;
42972;SDS011;28610;51.214;6.962;2023-04-30T11:57:01;4.88;;;2.10;;
42972;SDS011;28610;51.214;6.962;2023-04-30T11:59:47;2.08;;;1.88;;
42972;SDS011;28610;51.214;6.962;2023-04-30T12:02:34;3.42;;;2.00;;
42972;SDS011;28610;51.214;6.962;2023-04-30T12:05:20;2.78;;;2.13;;
42972;SDS011;28610;51.214;6.962;2023-04-30T12:08:07;3.72;;;2.20;;
42972;SDS011;28610;51.214;6.962;2023-04-30T12:10:53;2.88;;;2.30;;
42972;SDS011;28610;51.214;6.962;2023-04-30T12:13:39;2.88;;;2.33;;
42972;SDS011;28610;51.214;6.962;2023-04-30T12:16:41;3.67;;;2.60;;
42972;SDS011;28610;51.214;6.962;2023-04-30T12:19:32;3.47;;;2.08;;
42972;SDS011;28610;51.214;6.962;2023-04-30T12:22:18;3.05;;;2.13;;
42972;SDS011;28610;51.214;6.962;2023-04-30T12:25:05;4.30;;;2.10;;
42972;SDS011;28610;51.214;6.962;2023-04-30T12:27:52;3.58;;;2.30;;
42972;SDS011;28610;51.214;6.962;2023-04-30T12:30:38;2.72;;;2.15;;
42972;SDS011;28610;51.214;6.962;2023-04-30T12:33:28;3.78;;;2.20;;
42972;SDS011;28610;51.214;6.962;2023-04-30T12:36:15;4.65;;;2.30;;
42972;SDS011;28610;51.214;6.962;2023-04-30T12:39:07;5.82;;;2.30;;
42972;SDS011;28610;51.214;6.962;2023-04-30T12:41:53;2.33;;;2.03;;
42972;SDS011;28610;51.214;6.962;2023-04-30T12:44:43;3.10;;;2.10;;
42972;SDS011;28610;51.214;6.962;2023-04-30T12:47:29;2.40;;;1.98;;
42972;SDS011;28610;51.214;6.962;2023-04-30T12:50:14;2.97;;;1.83;;
42972;SDS011;28610;51.214;6.962;2023-04-30T12:53:02;5.38;;;2.20;;
42972;SDS011;28610;51.214;6.962;2023-04-30T12:56:07;3.78;;;2.10;;
42972;SDS011;28610;51.214;6.962;2023-04-30T12:58:54;5.03;;;1.98;;
42972;SDS011;28610;51.214;6.962;2023-04-30T13:01:43;2.88;;;1.90;;
42972;SDS011;28610;51.214;6.962;2023-04-30T13:04:29;4.22;;;1.90;;
42972;SDS011;28610;51.214;6.962;2023-04-30T13:07:15;2.83;;;1.88;;
42972;SDS011;28610;51.214;6.962;2023-04-30T13:10:03;3.63;;;2.00;;
42972;SDS011;28610;51.214;6.962;2023-04-30T13:12:52;2.10;;;1.90;;
42972;SDS011;28610;51.214;6.962;2023-04-30T13:15:38;3.22;;;1.85;;
42972;SDS011;28610;51.214;6.962;2023-04-30T13:18:24;2.88;;;1.83;;
42972;SDS011;28610;51.214;6.962;2023-04-30T13:21:09;2.08;;;1.88;;
42972;SDS011;28610;51.214;6.962;2023-04-30T13:23:55;4.57;;;2.00;;
42972;SDS011;28610;51.214;6.962;2023-04-30T13:26:42;3.38;;;2.22;;
42972;SDS011;28610;51.214;6.962;2023-04-30T13:29:28;2.42;;;1.90;;
42972;SDS011;28610;51.214;6.962;2023-04-30T13:32:14;1.98;;;1.88;;
42972;SDS011;28610;51.214;6.962;2023-04-30T13:35:00;2.45;;;2.10;;
42972;SDS011;28610;51.214;6.962;2023-04-30T13:37:46;2.33;;;1.83;;
42972;SDS011;28610;51.214;6.962;2023-04-30T13:40:34;2.45;;;2.05;;
42972;SDS011;28610;51.214;6.962;2023-04-30T13:43:21;2.17;;;1.98;;
42972;SDS011;28610;51.214;6.962;2023-04-30T13:46:07;5.88;;;2.58;;
42972;SDS011;28610;51.214;6.962;2023-04-30T13:48:53;3.38;;;2.28;;
42972;SDS011;28610;51.214;6.962;2023-04-30T13:51:38;3.40;;;2.28;;
42972;SDS011;28610;51.214;6.962;2023-04-30T13:54:24;2.95;;;2.30;;
42972;SDS011;28610;51.214;6.962;2023-04-30T13:57:10;3.10;;;2.10;;
42972;SDS011;28610;51.214;6.962;2023-04-30T13:59:56;3.38;;;2.00;;
42972;SDS011;28610;51.214;6.962;2023-04-30T14:02:42;4.40;;;2.10;;
42972;SDS011;28610;51.214;6.962;2023-04-30T14:05:28;4.55;;;2.22;;
42972;SDS011;28610;51.214;6.962;2023-04-30T14:08:13;3.95;;;2.00;;
42972;SDS011;28610;51.214;6.962;2023-04-30T14:10:59;2.08;;;1.88;;
42972;SDS011;28610;51.214;6.962;2023-04-30T14:13:44;2.10;;;1.90;;
42972;SDS011;28610;51.214;6.962;2023-04-30T14:16:31;2.90;;;2.20;;
42972;SDS011;28610;51.214;6.962;2023-04-30T14:19:17;3.47;;;2.05;;
42972;SDS011;28610;51.214;6.962;2023-04-30T14:22:02;2.00;;;1.85;;
42972;SDS011;28610;51.214;6.962;2023-04-30T14:24:48;2.78;;;2.13;;
42972;SDS011;28610;51.214;6.962;2023-04-30T14:27:34;3.88;;;2.00;;
42972;SDS011;28610;51.214;6.962;2023-04-30T14:30:20;4.45;;;2.40;;
42972;SDS011;28610;51.214;6.962;2023-04-30T14:33:07;4.78;;;2.25;;
42972;SDS011;28610;51.214;6.962;2023-04-30T14:35:54;3.13;;;2.20;;
42972;SDS011;28610;51.214;6.962;2023-04-30T14:38:40;3.47;;;2.10;;
42972;SDS011;28610;51.214;6.962;2023-04-30T14:41:26;3.55;;;2.10;;
42972;SDS011;28610;51.214;6.962;2023-04-30T14:44:11;2.30;;;2.10;;
42972;SDS011;28610;51.214;6.962;2023-04-30T14:46:57;2.22;;;1.95;;
42972;SDS011;28610;51.214;6.962;2023-04-30T14:49:44;5.40;;;2.75;;
42972;SDS011;28610;51.214;6.962;2023-04-30T14:52:30;4.72;;;2.15;;
42972;SDS011;28610;51.214;6.962;2023-04-30T14:55:16;3.72;;;1.88;;
42972;SDS011;28610;51.214;6.962;2023-04-30T14:58:01;3.78;;;2.10;;
42972;SDS011;28610;51.214;6.962;2023-04-30T15:00:47;4.13;;;1.92;;
42972;SDS011;28610;51.214;6.962;2023-04-30T15:03:33;3.95;;;2.03;;
42972;SDS011;28610;51.214;6.962;2023-04-30T15:06:20;4.55;;;2.40;;
42972;SDS011;28610;51.214;6.962;2023-04-30T15:09:06;2.78;;;2.25;;
42972;SDS011;28610;51.214;6.962;2023-04-30T15:11:51;3.15;;;2.10;;
42972;SDS011;28610;51.214;6.962;2023-04-30T15:14:37;2.30;;;2.10;;
42972;SDS011;28610;51.214;6.962;2023-04-30T15:17:23;6.57;;;2.50;;
42972;SDS011;28610;51.214;6.962;2023-04-30T15:20:09;5.07;;;2.13;;
42972;SDS011;28610;51.214;6.962;2023-04-30T15:22:56;3.55;;;2.10;;
42972;SDS011;28610;51.214;6.962;2023-04-30T15:25:42;4.32;;;2.22;;
42972;SDS011;28610;51.214;6.962;2023-04-30T15:28:28;2.55;;;2.00;;
42972;SDS011;28610;51.214;6.962;2023-04-30T15:31:15;3.25;;;2.10;;
42972;SDS011;28610;51.214;6.962;2023-04-30T15:34:00;2.35;;;1.98;;
42972;SDS011;28610;51.214;6.962;2023-04-30T15:36:46;2.70;;;2.20;;
42972;SDS011;28610;51.214;6.962;2023-04-30T15:39:33;4.05;;;2.33;;
42972;SDS011;28610;51.214;6.962;2023-04-30T15:42:18;2.83;;;2.10;;
42972;SDS011;28610;51.214;6.962;2023-04-30T15:45:04;4.88;;;2.50;;
42972;SDS011;28610;51.214;6.962;2023-04-30T15:47:50;3.25;;;1.92;;
42972;SDS011;28610;51.214;6.962;2023-04-30T15:50:36;3.78;;;2.28;;
42972;SDS011;28610;51.214;6.962;2023-04-30T15:53:22;4.38;;;2.10;;
42972;SDS011;28610;51.214;6.962;2023-04-30T15:56:09;3.97;;;2.20;;
42972;SDS011;28610;51.214;6.962;2023-04-30T15:58:55;4.70;;;2.13;;
42972;SDS011;28610;51.214;6.962;2023-04-30T16:01:41;2.63;;;2.00;;
42972;SDS011;28610;51.214;6.962;2023-04-30T16:04:26;3.78;;;2.22;;
42972;SDS011;28610;51.214;6.962;2023-04-30T16:07:12;3.50;;;2.17;;
42972;SDS011;28610;51.214;6.962;2023-04-30T16:09:58;4.50;;;2.25;;
42972;SDS011;28610;51.214;6.962;2023-04-30T16:12:46;2.85;;;1.90;;
42972;SDS011;28610;51.214;6.962;2023-04-30T16:15:31;4.55;;;2.17;;
42972;SDS011;28610;51.214;6.962;2023-04-30T16:18:17;4.85;;;2.10;;
42972;SDS011;28610;51.214;6.962;2023-04-30T16:21:02;5.07;;;2.08;;
42972;SDS011;28610;51.214;6.962;2023-04-30T16:23:51;3.45;;;2.03;;
42972;SDS011;28610;51.214;6.962;2023-04-30T16:26:37;5.18;;;2.10;;
42972;SDS011;28610;51.214;6.962;2023-04-30T16:29:24;2.88;;;2.00;;
42972;SDS011;28610;51.214;6.962;2023-04-30T16:32:09;4.22;;;2.03;;